Time;durP1;ratioP1;P1;durP2;ratioP2;P2;SDS_P1;SDS_P2;PMS_P1;PMS_P2;Temp;Humidity;BMP_temperature;BMP_pressure;BME280_temperature;BME280_humidity;BME280_pressure;Samples;Min_cycle;Max_cycle;Signal;HPM_P1;HPM_P2
2023/06/05 00:00:06;;;;;;;;;14.40;14.00;;;;;17.85;42.49;99251.63;7700853;22;96326;-62
2023/06/05 00:03:14;;;;;;;;;11.00;11.00;;;;;17.82;42.41;99238.50;7697895;22;96194;-63
2023/06/05 00:06:18;;;;;;;;;13.20;10.60;;;;;17.65;43.01;99234.00;7698602;22;96333;-62
2023/06/05 00:09:21;;;;;;;;;16.20;15.20;;;;;17.63;43.11;99244.34;7671003;22;96572;-62
2023/06/05 00:12:26;;;;;;;;;12.00;11.00;;;;;17.63;43.32;99244.34;7698057;22;96203;-62
2023/06/05 00:15:31;;;;;;;;;15.60;14.20;;;;;17.56;43.35;99242.88;7698194;22;96249;-62
2023/06/05 00:18:34;;;;;;;;;15.00;13.50;;;;;17.47;43.52;99245.25;7698174;22;96416;-63
2023/06/05 00:21:38;;;;;;;;;11.60;11.00;;;;;17.35;44.32;99244.56;7698311;22;96216;-62
2023/06/05 00:24:41;;;;;;;;;14.00;13.00;;;;;17.29;44.27;99243.72;7671568;22;96149;-62
2023/06/05 00:27:46;;;;;;;;;13.60;12.20;;;;;17.22;44.56;99239.53;7670808;22;97621;-62
2023/06/05 00:30:49;;;;;;;;;10.33;10.00;;;;;17.02;45.10;99229.22;7669838;22;96571;-63
2023/06/05 00:33:54;;;;;;;;;14.00;11.75;;;;;17.07;44.84;99242.91;7697962;22;96275;-62
2023/06/05 00:36:57;;;;;;;;;9.20;9.00;;;;;17.04;45.14;99242.59;7697425;22;96839;-62
2023/06/05 00:40:01;;;;;;;;;8.25;8.25;;;;;16.98;45.61;99235.44;7695028;22;98697;-62
2023/06/05 00:43:06;;;;;;;;;8.00;7.00;;;;;16.95;45.59;99246.88;7671201;22;96197;-63
2023/06/05 00:46:11;;;;;;;;;8.40;8.40;;;;;16.80;45.44;99242.88;7698174;22;96243;-63
2023/06/05 00:49:14;;;;;;;;;12.25;10.75;;;;;16.83;46.02;99238.81;7698518;22;96372;-62
2023/06/05 00:52:18;;;;;;;;;9.00;8.80;;;;;16.78;45.92;99238.75;7671044;22;97000;-62
2023/06/05 00:55:22;;;;;;;;;8.00;7.00;;;;;16.73;46.06;99235.97;7670124;22;98831;-63
2023/06/05 00:58:29;;;;;;;;;8.80;7.40;;;;;16.67;45.82;99234.25;7697981;22;96306;-62
2023/06/05 01:01:34;;;;;;;;;7.00;7.00;;;;;16.63;46.30;99236.66;7698220;22;96424;-63
2023/06/05 01:04:40;;;;;;;;;7.00;7.00;;;;;16.53;46.58;99222.88;7698258;22;96312;-62
2023/06/05 01:07:44;;;;;;;;;7.60;7.00;;;;;16.53;47.01;99232.94;7645403;22;96666;-63
2023/06/05 01:10:47;;;;;;;;;9.00;8.00;;;;;16.47;47.13;99232.88;7697702;22;97547;-63
2023/06/05 01:14:03;;;;;;;;;10.00;9.00;;;;;16.39;47.32;99236.03;7669119;22;96926;-63
2023/06/05 01:17:08;;;;;;;;;10.00;7.60;;;;;16.32;47.60;99237.28;7697932;22;96223;-62
2023/06/05 01:20:12;;;;;;;;;8.60;8.60;;;;;16.29;47.42;99233.16;7671126;22;96263;-62
2023/06/05 01:23:17;;;;;;;;;9.40;9.00;;;;;16.28;47.38;99231.50;7697993;22;96315;-63
2023/06/05 01:26:28;;;;;;;;;11.00;11.00;;;;;16.24;47.88;99219.47;7698113;22;96309;-62
2023/06/05 01:29:38;;;;;;;;;6.60;6.60;;;;;16.20;47.91;99223.78;7698185;22;96802;-63
2023/06/05 01:32:47;;;;;;;;;7.20;7.00;;;;;16.13;48.27;99227.72;7670294;22;98355;-63
2023/06/05 01:35:53;;;;;;;;;7.00;6.40;;;;;16.02;48.74;99233.03;7680704;22;95999;-62
2023/06/05 01:39:00;;;;;;;;;7.00;6.60;;;;;16.02;48.65;99232.22;7698171;22;96953;-62
2023/06/05 01:42:03;;;;;;;;;5.00;5.00;;;;;15.98;48.69;99231.88;7696761;22;96489;-62
2023/06/05 01:45:09;;;;;;;;;9.00;8.00;;;;;15.96;48.85;99235.94;7695876;22;98467;-62
2023/06/05 01:48:12;;;;;;;;;9.00;8.00;;;;;15.92;49.04;99227.44;7695295;22;96813;-63
2023/06/05 01:51:16;;;;;;;;;7.40;7.00;;;;;15.91;49.13;99227.69;7695763;22;98045;-63
2023/06/05 01:54:23;;;;;;;;;9.60;9.00;;;;;15.89;49.57;99227.94;7697221;22;96791;-63
2023/06/05 01:57:27;;;;;;;;;6.60;6.00;;;;;15.86;49.41;99224.88;7696977;22;96340;-62
2023/06/05 02:00:30;;;;;;;;;8.00;7.00;;;;;15.84;49.30;99233.28;7696532;22;96783;-63
2023/06/05 02:03:34;;;;;;;;;8.50;8.00;;;;;15.80;49.50;99223.97;7697961;22;96180;-62
2023/06/05 02:06:43;;;;;;;;;9.80;8.20;;;;;15.76;49.53;99219.28;7669871;22;97208;-62
2023/06/05 02:09:49;;;;;;;;;8.60;8.00;;;;;15.74;49.24;99222.25;7696703;22;96237;-63
2023/06/05 02:12:53;;;;;;;;;7.60;7.00;;;;;15.73;49.22;99226.06;7697786;22;96234;-63
2023/06/05 02:15:56;;;;;;;;;10.00;9.40;;;;;15.79;49.11;99230.47;7697704;22;96656;-63
2023/06/05 02:19:03;;;;;;;;;10.00;9.00;;;;;15.83;48.93;99230.84;7671171;22;98301;-63
2023/06/05 02:22:06;;;;;;;;;9.75;8.00;;;;;15.83;48.67;99228.91;7699382;22;96223;-62
2023/06/05 02:25:12;;;;;;;;;11.60;10.00;;;;;15.87;48.69;99240.97;7698709;22;98041;-63
2023/06/05 02:28:16;;;;;;;;;11.40;10.40;;;;;15.88;48.07;99220.84;7699313;22;96900;-62
2023/06/05 02:31:23;;;;;;;;;14.00;13.00;;;;;15.96;48.03;99228.59;7698760;22;96286;-62
2023/06/05 02:34:28;;;;;;;;;12.00;10.25;;;;;15.90;48.12;99224.13;7668767;22;96638;-63
2023/06/05 02:37:37;;;;;;;;;12.00;11.20;;;;;16.03;48.11;99228.41;7645771;22;96716;-63
2023/06/05 02:40:42;;;;;;;;;14.60;13.00;;;;;16.15;47.42;99231.03;7645483;22;96641;-63
2023/06/05 02:43:46;;;;;;;;;11.00;10.00;;;;;16.15;46.98;99231.88;7699495;22;96900;-63
2023/06/05 02:46:49;;;;;;;;;11.00;10.00;;;;;16.23;46.66;99225.16;7672107;22;96288;-62
2023/06/05 02:49:53;;;;;;;;;9.00;8.00;;;;;16.22;47.12;99232.53;7671176;22;96430;-62
2023/06/05 02:52:56;;;;;;;;;10.00;9.00;;;;;16.22;46.96;99228.97;7671562;22;96431;-63
2023/06/05 02:56:07;;;;;;;;;8.50;7.50;;;;;16.15;47.17;99240.03;7698616;22;96338;-63
2023/06/05 02:59:11;;;;;;;;;8.00;8.00;;;;;16.15;47.46;99231.03;7645241;22;96773;-63
2023/06/05 03:02:15;;;;;;;;;11.40;11.40;;;;;16.14;47.69;99230.22;7671179;22;96441;-63
2023/06/05 03:05:24;;;;;;;;;9.75;8.75;;;;;16.12;47.89;99235.09;7671860;22;96167;-63
2023/06/05 03:08:31;;;;;;;;;9.00;8.60;;;;;16.08;48.21;99236.66;7671146;22;96643;-62
2023/06/05 03:11:36;;;;;;;;;8.75;7.75;;;;;16.13;48.14;99235.91;7699090;22;96394;-62
2023/06/05 03:14:40;;;;;;;;;8.80;8.20;;;;;16.00;48.13;99210.69;7671009;22;96213;-62
2023/06/05 03:17:45;;;;;;;;;12.00;10.00;;;;;16.26;47.82;99228.22;7671666;22;96298;-62
2023/06/05 03:20:50;;;;;;;;;7.40;7.40;;;;;16.26;47.91;99224.69;7671897;22;96919;-62
2023/06/05 03:23:54;;;;;;;;;8.00;8.00;;;;;16.32;48.07;99229.94;7672021;22;96281;-63
2023/06/05 03:26:58;;;;;;;;;8.80;8.80;;;;;16.47;47.55;99234.75;7672103;22;97822;-63
2023/06/05 03:30:02;;;;;;;;;8.00;8.00;;;;;16.59;46.96;99240.97;7671468;22;96214;-63
2023/06/05 03:33:10;;;;;;;;;7.00;7.00;;;;;16.70;47.42;99242.75;7671178;22;96281;-63
2023/06/05 03:36:15;;;;;;;;;7.00;7.00;;;;;16.78;47.08;99236.84;7669670;22;96195;-62
2023/06/05 03:39:19;;;;;;;;;8.80;8.20;;;;;16.94;46.52;99239.75;7647504;22;96558;-62
2023/06/05 03:42:24;;;;;;;;;7.25;7.25;;;;;16.98;46.20;99235.44;7700321;22;97362;-62
2023/06/05 03:45:28;;;;;;;;;7.20;7.20;;;;;17.12;46.35;99239.41;7699729;22;96856;-62
2023/06/05 03:48:32;;;;;;;;;8.00;8.00;;;;;17.19;46.41;99240.88;7670599;22;96685;-62
2023/06/05 03:51:35;;;;;;;;;7.00;6.00;;;;;17.27;45.91;99239.59;7699220;22;96391;-62
2023/06/05 03:54:40;;;;;;;;;8.00;8.00;;;;;17.37;45.51;99239.69;7671896;22;96389;-62
2023/06/05 03:57:45;;;;;;;;;8.50;8.50;;;;;17.49;45.50;99245.00;7672613;22;96345;-63
2023/06/05 04:00:50;;;;;;;;;7.00;7.00;;;;;17.59;45.40;99236.97;7670128;22;96210;-63
2023/06/05 04:03:54;;;;;;;;;7.00;6.20;;;;;17.69;45.14;99239.78;7671161;22;96319;-62
2023/06/05 04:06:59;;;;;;;;;8.00;8.00;;;;;17.74;45.11;99234.34;7697868;22;96359;-62
2023/06/05 04:10:03;;;;;;;;;6.00;6.00;;;;;17.84;45.01;99239.09;7672520;22;96711;-61
2023/06/05 04:13:08;;;;;;;;;4.00;4.00;;;;;17.92;45.11;99241.31;7671644;22;97437;-61
2023/06/05 04:16:13;;;;;;;;;8.00;8.00;;;;;18.03;44.81;99235.66;7640729;22;98298;-62
2023/06/05 04:19:17;;;;;;;;;7.00;7.00;;;;;18.12;44.46;99241.47;7698775;22;96941;-63
2023/06/05 04:22:23;;;;;;;;;9.00;8.00;;;;;18.21;44.74;99247.25;7671388;22;96981;-63
2023/06/05 04:25:28;;;;;;;;;8.00;7.00;;;;;18.29;44.19;99246.75;7672078;22;96195;-62
2023/06/05 04:28:34;;;;;;;;;8.00;7.00;;;;;18.36;44.24;99244.63;7672807;22;96400;-63
2023/06/05 04:31:40;;;;;;;;;6.60;6.20;;;;;18.45;44.10;99234.88;7671890;22;96597;-62
2023/06/05 04:34:43;;;;;;;;;6.00;4.60;;;;;18.51;44.32;99242.00;7670420;22;96377;-62
2023/06/05 04:37:47;;;;;;;;;9.20;8.80;;;;;18.62;44.00;99237.44;7672322;22;96745;-62
2023/06/05 04:40:51;;;;;;;;;8.00;8.00;;;;;18.74;43.70;99240.78;7699766;22;96551;-63
2023/06/05 04:43:57;;;;;;;;;7.00;6.00;;;;;18.80;43.62;99234.25;7670945;22;96254;-62
2023/06/05 04:47:01;;;;;;;;;6.00;5.00;;;;;18.90;43.70;99239.75;7695488;22;96813;-63
2023/06/05 04:50:06;;;;;;;;;10.50;9.00;;;;;19.02;43.26;99238.44;7645209;22;97051;-63
2023/06/05 04:53:12;;;;;;;;;7.00;7.00;;;;;18.95;43.11;99237.88;7671581;22;96855;-62
2023/06/05 04:56:17;;;;;;;;;5.80;5.00;;;;;19.09;42.96;99235.47;7646451;22;96699;-63
2023/06/05 04:59:22;;;;;;;;;9.00;8.00;;;;;19.14;43.16;99243.69;7699874;22;96299;-62
2023/06/05 05:02:26;;;;;;;;;7.00;6.75;;;;;19.18;43.15;99236.56;7646131;22;98426;-62
2023/06/05 05:05:29;;;;;;;;;11.00;10.00;;;;;19.20;43.30;99236.31;7672479;22;98447;-63
2023/06/05 05:08:36;;;;;;;;;6.00;5.00;;;;;19.21;43.00;99233.28;7672601;22;96351;-62
2023/06/05 05:11:39;;;;;;;;;9.40;7.40;;;;;19.24;42.90;99243.72;7672111;22;96462;-62
2023/06/05 05:14:45;;;;;;;;;8.00;8.00;;;;;19.23;43.57;99239.31;7697592;22;96515;-63
2023/06/05 05:17:51;;;;;;;;;8.20;8.00;;;;;19.27;42.73;99236.88;7644745;22;96580;-62
2023/06/05 05:20:55;;;;;;;;;9.00;8.50;;;;;19.30;43.09;99239.88;7697252;22;96492;-63
2023/06/05 05:23:58;;;;;;;;;9.00;7.33;;;;;19.41;43.00;99238.81;7670840;22;96988;-63
2023/06/05 05:27:02;;;;;;;;;7.67;6.67;;;;;19.45;42.70;99245.41;7698888;22;96299;-64
2023/06/05 05:30:09;;;;;;;;;8.75;8.75;;;;;19.64;42.59;99244.91;7672675;22;97237;-62
2023/06/05 05:33:14;;;;;;;;;7.00;7.00;;;;;19.77;42.61;99242.44;7672441;22;96738;-62
2023/06/05 05:36:18;;;;;;;;;11.50;10.50;;;;;19.94;42.53;99225.75;7661873;22;96580;-63
2023/06/05 05:39:21;;;;;;;;;8.20;8.20;;;;;20.24;42.48;99244.06;7670964;22;98492;-63
2023/06/05 05:42:25;;;;;;;;;8.80;8.20;;;;;20.41;42.39;99249.28;7695834;22;96787;-63
2023/06/05 05:45:30;;;;;;;;;8.00;6.40;;;;;20.55;41.64;99250.34;7696365;22;98259;-62
2023/06/05 05:48:36;;;;;;;;;8.00;7.00;;;;;20.56;41.11;99252.00;7694039;22;98330;-63
2023/06/05 05:51:40;;;;;;;;;9.00;8.00;;;;;20.59;40.98;99234.97;7697701;22;96469;-63
2023/06/05 05:54:43;;;;;;;;;8.00;8.00;;;;;20.74;40.73;99254.94;7695629;22;96801;-63
2023/06/05 05:57:46;;;;;;;;;7.80;7.80;;;;;20.69;40.67;99249.47;7698879;22;96250;-63
2023/06/05 06:00:52;;;;;;;;;8.00;7.80;;;;;20.77;41.20;99253.53;7695935;22;96575;-61
2023/06/05 06:03:56;;;;;;;;;8.20;7.80;;;;;20.75;41.02;99247.53;7698826;22;96223;-63
2023/06/05 06:07:00;;;;;;;;;7.00;6.00;;;;;20.88;40.80;99257.06;7699193;22;96554;-63
2023/06/05 06:10:04;;;;;;;;;8.00;8.00;;;;;20.95;40.53;99247.47;7698811;22;96259;-63
2023/06/05 06:13:08;;;;;;;;;10.00;9.00;;;;;21.12;40.26;99253.41;7698933;22;96232;-63
2023/06/05 06:16:13;;;;;;;;;10.60;9.00;;;;;21.16;39.91;99253.69;7695660;22;98235;-63
2023/06/05 06:19:18;;;;;;;;;7.00;6.00;;;;;21.24;40.27;99257.78;7697024;22;96853;-63
2023/06/05 06:22:22;;;;;;;;;8.60;8.60;;;;;21.28;39.71;99254.19;7697744;22;96465;-65
2023/06/05 06:25:28;;;;;;;;;10.40;9.40;;;;;21.39;39.83;99243.97;7697423;22;96730;-65
2023/06/05 06:28:31;;;;;;;;;10.00;8.60;;;;;21.51;39.39;99258.97;7697973;22;96264;-64
2023/06/05 06:31:36;;;;;;;;;8.00;7.60;;;;;21.60;39.34;99259.19;7668387;22;98963;-65
2023/06/05 06:34:42;;;;;;;;;9.00;8.80;;;;;21.78;39.65;99261.28;7697646;22;96307;-65
2023/06/05 06:37:45;;;;;;;;;8.00;7.80;;;;;22.01;38.92;99268.00;7698306;22;96437;-65
2023/06/05 06:40:48;;;;;;;;;8.60;8.00;;;;;22.25;39.20;99263.38;7698176;22;96206;-65
2023/06/05 06:43:52;;;;;;;;;10.00;9.00;;;;;22.52;38.45;99262.03;7698255;22;97050;-65
2023/06/05 06:46:57;;;;;;;;;8.60;8.00;;;;;22.75;38.13;99267.56;7698888;22;96910;-65
2023/06/05 06:50:00;;;;;;;;;8.60;8.00;;;;;22.87;37.43;99256.19;7672446;22;96997;-65
2023/06/05 06:53:03;;;;;;;;;10.40;9.00;;;;;23.08;37.92;99248.47;7669845;22;96391;-65
2023/06/05 06:56:07;;;;;;;;;6.00;6.00;;;;;23.20;37.20;99252.44;7645263;22;96594;-65
2023/06/05 06:59:13;;;;;;;;;7.00;7.00;;;;;23.34;37.57;99255.28;7670150;22;96838;-65
2023/06/05 07:02:19;;;;;;;;;8.00;7.00;;;;;23.32;36.41;99255.56;7695041;22;99765;-65
2023/06/05 07:05:23;;;;;;;;;6.00;5.00;;;;;23.47;36.84;99260.06;7696681;22;96437;-65
2023/06/05 07:08:26;;;;;;;;;8.00;7.40;;;;;23.68;37.06;99253.16;7670716;22;98258;-65
2023/06/05 07:11:30;;;;;;;;;6.00;6.00;;;;;23.92;36.70;99249.50;7699131;22;96310;-65
2023/06/05 07:14:34;;;;;;;;;9.00;8.00;;;;;24.20;35.75;99247.66;7699619;22;96283;-65
2023/06/05 07:17:39;;;;;;;;;8.00;7.60;;;;;24.26;34.53;99244.53;7697755;22;96455;-64
2023/06/05 07:20:42;;;;;;;;;9.50;8.00;;;;;24.32;35.12;99246.06;7673161;22;96396;-65
2023/06/05 07:23:48;;;;;;;;;10.00;9.00;;;;;24.40;34.85;99252.81;7671944;22;97209;-65
2023/06/05 07:26:52;;;;;;;;;8.25;8.25;;;;;24.47;35.37;99253.25;7698041;22;96760;-65
2023/06/05 07:29:56;;;;;;;;;9.00;8.60;;;;;24.71;34.70;99253.88;7700376;22;96761;-65
2023/06/05 07:33:00;;;;;;;;;9.00;8.00;;;;;24.86;34.67;99258.28;7672452;22;98770;-65
2023/06/05 07:36:04;;;;;;;;;9.00;9.00;;;;;24.91;33.44;99252.69;7699015;22;96938;-65
2023/06/05 07:39:08;;;;;;;;;8.60;7.60;;;;;25.25;33.85;99255.84;7699950;22;96985;-65
2023/06/05 07:42:11;;;;;;;;;8.00;7.80;;;;;25.49;33.73;99257.53;7698838;22;97157;-65
2023/06/05 07:45:17;;;;;;;;;9.60;8.20;;;;;25.84;33.97;99251.22;7698231;22;96928;-65
2023/06/05 07:48:22;;;;;;;;;11.60;11.60;;;;;26.18;33.27;99253.41;7671892;22;96600;-65
2023/06/05 07:51:26;;;;;;;;;9.00;9.00;;;;;26.48;32.66;99251.81;7699560;22;96431;-65
2023/06/05 07:54:29;;;;;;;;;9.00;8.00;;;;;26.79;32.47;99243.47;7698879;22;96439;-65
2023/06/05 07:57:33;;;;;;;;;6.60;6.40;;;;;26.97;31.98;99225.84;7698698;22;97412;-65
2023/06/05 08:00:36;;;;;;;;;8.75;7.75;;;;;27.43;31.30;99239.13;7698423;22;96755;-65
2023/06/05 08:03:43;;;;;;;;;8.00;8.00;;;;;27.72;30.93;99236.56;7670088;22;96755;-64
2023/06/05 08:06:47;;;;;;;;;5.50;4.50;;;;;27.78;29.68;99235.25;7671745;22;96765;-65
2023/06/05 08:09:50;;;;;;;;;8.00;7.60;;;;;27.70;29.59;99238.03;7698712;22;97323;-65
2023/06/05 08:12:54;;;;;;;;;8.40;7.40;;;;;27.89;30.14;99232.97;7699795;22;96328;-65
2023/06/05 08:15:57;;;;;;;;;9.00;7.00;;;;;27.99;29.76;99230.69;7699922;22;96293;-65
2023/06/05 08:19:02;;;;;;;;;5.20;4.20;;;;;27.78;28.54;99226.94;7699334;22;97435;-65
2023/06/05 08:22:05;;;;;;;;;6.00;6.00;;;;;27.91;29.42;99234.28;7698578;22;96455;-64
2023/06/05 08:25:09;;;;;;;;;5.00;5.00;;;;;28.08;29.40;99227.09;7670202;22;96914;-64
2023/06/05 08:28:13;;;;;;;;;7.00;7.00;;;;;28.18;27.36;99226.78;7698055;22;96575;-65
2023/06/05 08:31:16;;;;;;;;;6.50;6.50;;;;;28.39;28.07;99227.72;7699100;22;96464;-64
2023/06/05 08:34:22;;;;;;;;;3.60;3.20;;;;;28.26;25.39;99235.06;7698175;22;96103;-64
2023/06/05 08:37:28;;;;;;;;;4.00;4.00;;;;;28.01;26.91;99227.56;7646602;22;96357;-65
2023/06/05 08:40:31;;;;;;;;;5.00;5.00;;;;;28.22;27.75;99227.72;7698018;22;96934;-65
2023/06/05 08:43:37;;;;;;;;;9.00;8.00;;;;;28.43;27.75;99229.47;7669211;22;96467;-65
2023/06/05 08:46:41;;;;;;;;;7.00;6.00;;;;;28.50;26.89;99206.75;7670554;22;96590;-64
2023/06/05 08:49:46;;;;;;;;;6.00;5.40;;;;;28.77;26.61;99231.34;7697217;22;96607;-64
2023/06/05 08:52:52;;;;;;;;;5.00;4.80;;;;;29.04;26.21;99213.38;7695509;22;96860;-65
2023/06/05 08:55:56;;;;;;;;;4.00;4.00;;;;;29.22;25.52;99206.56;7698060;22;96430;-66
2023/06/05 08:59:00;;;;;;;;;4.00;3.00;;;;;29.33;25.69;99225.66;7666578;22;96693;-65
2023/06/05 09:02:04;;;;;;;;;5.00;4.25;;;;;29.41;25.23;99219.25;7698571;22;96360;-65
2023/06/05 09:05:09;;;;;;;;;7.00;6.00;;;;;29.53;25.23;99216.50;7699249;22;96500;-65
2023/06/05 09:08:13;;;;;;;;;5.75;5.50;;;;;29.74;25.17;99217.31;7698726;22;97001;-65
2023/06/05 09:11:23;;;;;;;;;5.00;5.00;;;;;29.94;25.13;99216.53;7672231;22;96481;-65
2023/06/05 09:14:27;;;;;;;;;3.75;3.75;;;;;30.17;23.62;99221.69;7698392;22;97427;-65
2023/06/05 09:17:30;;;;;;;;;5.20;4.80;;;;;30.36;24.64;99221.97;7699902;22;96285;-65
2023/06/05 09:20:37;;;;;;;;;7.00;7.00;;;;;30.56;23.83;99221.13;7671960;22;98662;-65
2023/06/05 09:23:41;;;;;;;;;6.20;6.00;;;;;30.51;22.81;99215.78;7669429;22;98306;-65
2023/06/05 09:26:55;;;;;;;;;4.40;4.00;;;;;30.36;23.40;99211.66;7699034;22;96408;-65
2023/06/05 09:30:08;;;;;;;;;5.60;5.00;;;;;30.52;23.90;99215.44;7670977;22;98774;-65
2023/06/05 09:33:15;;;;;;;;;5.00;4.00;;;;;30.59;22.87;99217.66;7699566;22;96175;-66
2023/06/05 09:36:20;;;;;;;;;5.00;5.00;;;;;30.36;22.44;99219.19;7698495;22;96312;-65
2023/06/05 09:39:26;;;;;;;;;5.50;5.50;;;;;30.10;22.09;99217.50;7672328;22;96464;-64
2023/06/05 09:42:33;;;;;;;;;5.00;5.00;;;;;30.26;23.20;99217.66;7697957;22;96330;-64
2023/06/05 09:45:45;;;;;;;;;4.40;4.00;;;;;30.72;22.44;99210.13;7698637;22;96517;-64
2023/06/05 09:48:58;;;;;;;;;4.00;3.00;;;;;30.86;21.97;99211.41;7669702;22;99395;-65
2023/06/05 09:52:03;;;;;;;;;4.00;4.00;;;;;30.78;22.28;99215.13;7696698;22;97362;-65
2023/06/05 09:55:08;;;;;;;;;4.00;4.00;;;;;30.36;22.27;99213.63;7668982;22;99323;-65
2023/06/05 09:58:14;;;;;;;;;5.67;5.00;;;;;30.37;22.71;99199.38;7695584;22;96658;-64
2023/06/05 10:01:22;;;;;;;;;6.00;6.00;;;;;30.32;22.16;99201.56;7667143;22;98295;-64
2023/06/05 10:04:28;;;;;;;;;5.00;5.00;;;;;30.52;21.79;99200.72;7696229;22;96470;-65
2023/06/05 10:07:34;;;;;;;;;7.00;7.00;;;;;30.12;22.07;99201.28;7698760;22;96862;-66
2023/06/05 10:10:39;;;;;;;;;4.00;4.00;;;;;30.30;22.18;99196.34;7699415;22;96776;-64
2023/06/05 10:13:43;;;;;;;;;3.67;3.67;;;;;30.49;22.34;99191.09;7672101;22;96231;-64
2023/06/05 10:16:51;;;;;;;;;3.00;3.00;;;;;30.70;23.42;99196.53;7699003;22;96410;-65
2023/06/05 10:19:56;;;;;;;;;6.00;5.80;;;;;30.93;23.02;99181.00;7698829;22;97009;-65
2023/06/05 10:23:02;;;;;;;;;5.00;5.00;;;;;31.06;22.37;99181.84;7698344;22;96311;-65
2023/06/05 10:26:16;;;;;;;;;6.00;4.00;;;;;31.18;22.73;99181.00;7671696;22;96901;-64
2023/06/05 10:29:39;;;;;;;;;6.00;5.60;;;;;31.29;23.06;99171.81;7671856;22;96319;-65
2023/06/05 10:32:57;;;;;;;;;5.00;4.00;;;;;31.07;22.14;99177.06;7698537;22;96295;-65
2023/06/05 10:36:12;;;;;;;;;5.00;4.00;;;;;31.06;23.07;99175.44;7698806;22;96292;-65
2023/06/05 10:39:18;;;;;;;;;5.00;5.00;;;;;30.97;23.34;99167.19;7698944;22;96262;-65
2023/06/05 10:42:25;;;;;;;;;4.75;4.75;;;;;31.21;22.56;99169.16;7697768;22;96228;-65
2023/06/05 10:45:32;;;;;;;;;4.00;4.00;;;;;31.55;22.45;99160.25;7670801;22;96191;-66
2023/06/05 10:49:13;;;;;;;;;4.40;4.00;;;;;31.74;21.88;99167.97;7697758;22;96382;-65
2023/06/05 10:52:37;;;;;;;;;6.60;5.60;;;;;31.94;22.29;99157.78;7668934;22;96316;-65
2023/06/05 10:55:45;;;;;;;;;5.00;4.75;;;;;31.64;20.75;99158.13;7698218;22;96289;-65
2023/06/05 10:59:12;;;;;;;;;5.80;5.20;;;;;31.48;21.74;99156.41;7645814;22;98405;-65
2023/06/05 11:02:26;;;;;;;;;4.75;4.00;;;;;31.76;22.27;99152.53;7698588;22;96250;-65
2023/06/05 11:05:30;;;;;;;;;4.50;4.50;;;;;32.03;21.56;99158.41;7698233;22;96441;-65
2023/06/05 11:08:36;;;;;;;;;6.00;5.60;;;;;31.68;21.28;99161.03;7698096;22;96273;-65
2023/06/05 11:12:01;;;;;;;;;6.00;6.00;;;;;32.01;22.32;99150.41;7698073;22;96328;-65
2023/06/05 11:15:05;;;;;;;;;5.00;5.00;;;;;32.43;22.24;99161.91;7698111;22;96271;-65
2023/06/05 11:18:31;;;;;;;;;5.40;5.40;;;;;32.49;21.77;99159.66;7697618;22;96346;-65
2023/06/05 11:22:05;;;;;;;;;6.00;5.00;;;;;32.41;21.10;99155.88;7697930;22;96478;-65
2023/06/05 11:25:30;;;;;;;;;5.00;5.00;;;;;32.12;21.53;99153.50;7669395;22;100049;-65
2023/06/05 11:28:45;;;;;;;;;7.50;6.50;;;;;32.02;21.28;99156.78;7697805;22;96492;-65
2023/06/05 11:31:48;;;;;;;;;5.00;4.00;;;;;31.65;21.61;99148.63;7697407;22;96433;-64
2023/06/05 11:34:56;;;;;;;;;5.50;5.00;;;;;31.79;22.08;99134.25;7669952;22;96234;-65
2023/06/05 11:38:09;;;;;;;;;6.00;5.00;;;;;32.03;22.23;99134.13;7670036;22;96377;-63
2023/06/05 11:41:13;;;;;;;;;7.00;6.00;;;;;32.00;21.04;99134.03;7697185;22;96286;-65
2023/06/05 11:44:32;;;;;;;;;5.00;4.20;;;;;32.24;21.67;99131.94;7670227;22;96508;-65
2023/06/05 11:47:35;;;;;;;;;5.00;5.00;;;;;32.41;22.58;99127.16;7697459;22;97490;-65
2023/06/05 11:50:51;;;;;;;;;4.80;4.80;;;;;32.75;22.56;99128.41;7697123;22;96305;-64
2023/06/05 11:53:57;;;;;;;;;5.00;4.00;;;;;32.86;21.67;99126.69;7697199;22;96165;-65
2023/06/05 11:57:08;;;;;;;;;3.60;3.60;;;;;32.57;21.96;99114.81;7696503;22;96860;-65
2023/06/05 12:00:14;;;;;;;;;5.60;5.00;;;;;32.54;22.55;99129.50;7671223;22;98625;-65
2023/06/05 12:03:18;;;;;;;;;6.00;5.00;;;;;32.84;22.48;99121.44;7671037;22;96682;-66
2023/06/05 12:06:22;;;;;;;;;5.00;4.00;;;;;33.06;22.46;99104.00;7672147;22;99814;-65
2023/06/05 12:09:26;;;;;;;;;5.00;5.00;;;;;33.26;21.16;99120.81;7699081;22;96410;-64
2023/06/05 12:12:29;;;;;;;;;5.20;5.00;;;;;33.06;20.97;99112.41;7698767;22;96326;-65
2023/06/05 12:15:34;;;;;;;;;5.00;4.60;;;;;32.70;21.56;99118.31;7671997;22;96306;-65
2023/06/05 12:18:38;;;;;;;;;4.75;4.00;;;;;32.92;21.27;99119.66;7665933;22;98327;-63
2023/06/05 12:21:42;;;;;;;;;7.00;7.00;;;;;32.57;21.42;99111.22;7671542;22;96456;-64
2023/06/05 12:24:45;;;;;;;;;5.00;5.00;;;;;32.76;22.51;99113.28;7698890;22;96951;-65
2023/06/05 12:27:50;;;;;;;;;6.00;5.75;;;;;32.72;21.39;99098.44;7671748;22;96552;-65
2023/06/05 12:30:55;;;;;;;;;6.75;6.00;;;;;32.55;22.26;99108.78;7698548;22;96549;-65
2023/06/05 12:33:58;;;;;;;;;5.60;5.60;;;;;32.16;22.28;99099.44;7670359;22;97215;-65
2023/06/05 12:37:02;;;;;;;;;5.80;5.80;;;;;32.09;22.69;99113.19;7696830;22;96403;-65
2023/06/05 12:40:08;;;;;;;;;4.00;4.00;;;;;32.41;23.01;99102.84;7697188;22;96344;-65
2023/06/05 12:43:18;;;;;;;;;6.00;5.00;;;;;32.69;22.48;99093.59;7698609;22;96734;-65
2023/06/05 12:46:23;;;;;;;;;6.40;5.00;;;;;32.95;22.00;99091.78;7697121;22;96914;-65
2023/06/05 12:49:26;;;;;;;;;4.00;4.00;;;;;33.09;21.84;99089.31;7697878;22;96353;-65
2023/06/05 12:52:31;;;;;;;;;6.00;6.00;;;;;33.14;21.64;99079.00;7698653;22;96420;-65
2023/06/05 12:55:34;;;;;;;;;7.00;7.00;;;;;33.41;21.79;99075.22;7698464;22;96968;-65
2023/06/05 12:58:38;;;;;;;;;6.00;6.00;;;;;33.64;20.89;99078.88;7698584;22;96478;-64
2023/06/05 13:01:42;;;;;;;;;3.00;3.00;;;;;33.84;21.40;99071.28;7698740;22;96209;-65
2023/06/05 13:04:46;;;;;;;;;4.50;4.50;;;;;34.04;21.34;99064.47;7671097;22;96565;-65
2023/06/05 13:07:51;;;;;;;;;9.00;8.00;;;;;34.08;21.32;99056.13;7697070;22;96517;-65
2023/06/05 13:10:55;;;;;;;;;6.00;6.00;;;;;33.90;20.60;99067.00;7697263;22;96624;-65
2023/06/05 13:13:58;;;;;;;;;6.00;6.00;;;;;33.58;20.91;99063.56;7699069;22;96548;-64
2023/06/05 13:17:02;;;;;;;;;5.00;4.80;;;;;33.30;21.51;99063.81;7699593;22;96604;-65
2023/06/05 13:20:08;;;;;;;;;5.00;5.00;;;;;33.07;22.00;99055.34;7698123;22;96440;-65
2023/06/05 13:23:12;;;;;;;;;5.00;4.25;;;;;32.78;21.80;99044.75;7699136;22;96313;-65
2023/06/05 13:26:15;;;;;;;;;6.00;6.00;;;;;32.51;21.67;99048.44;7699102;22;96195;-65
2023/06/05 13:29:19;;;;;;;;;8.00;6.00;;;;;32.32;22.47;99045.59;7698963;22;96301;-65
2023/06/05 13:32:24;;;;;;;;;5.20;5.20;;;;;32.24;22.78;99039.88;7696754;22;96361;-65
2023/06/05 13:35:28;;;;;;;;;4.00;4.00;;;;;32.02;22.38;99039.66;7690229;22;96895;-65
2023/06/05 13:38:31;;;;;;;;;6.00;6.00;;;;;31.98;22.81;99039.56;7698801;22;96450;-65
2023/06/05 13:41:35;;;;;;;;;5.00;5.00;;;;;31.90;23.01;99031.38;7700823;22;96762;-65
2023/06/05 13:44:38;;;;;;;;;7.00;6.00;;;;;31.83;23.14;99018.06;7699227;22;97004;-66
2023/06/05 13:47:43;;;;;;;;;6.40;5.80;;;;;31.82;22.94;99031.19;7698360;22;96497;-65
2023/06/05 13:50:46;;;;;;;;;5.60;4.60;;;;;31.84;23.08;99028.06;7696885;22;96456;-65
2023/06/05 13:53:49;;;;;;;;;6.20;5.60;;;;;31.75;22.93;99022.66;7696937;22;96471;-65
2023/06/05 13:56:53;;;;;;;;;6.00;6.00;;;;;31.64;22.96;99034.69;7697266;22;96289;-65
2023/06/05 13:59:56;;;;;;;;;7.50;7.00;;;;;31.33;22.94;99024.25;7695229;22;96948;-64
2023/06/05 14:03:01;;;;;;;;;5.00;5.00;;;;;31.52;23.53;99018.78;7691450;22;97770;-64
2023/06/05 14:06:06;;;;;;;;;8.00;7.00;;;;;31.76;23.59;99018.72;7693907;22;96625;-65
2023/06/05 14:09:09;;;;;;;;;5.75;5.00;;;;;31.81;23.38;99014.84;7698344;22;97520;-64
2023/06/05 14:12:13;;;;;;;;;8.00;6.50;;;;;31.55;23.55;99015.31;7698438;22;96318;-64
2023/06/05 14:15:17;;;;;;;;;5.00;5.00;;;;;31.42;23.71;99022.91;7697808;22;97895;-64
2023/06/05 14:18:22;;;;;;;;;6.00;6.00;;;;;31.33;23.73;99011.13;7700624;22;96264;-64
2023/06/05 14:21:26;;;;;;;;;6.00;5.40;;;;;30.76;24.08;99014.22;7699624;22;96476;-64
2023/06/05 14:24:29;;;;;;;;;8.40;8.00;;;;;30.48;24.20;99011.41;7703167;22;96175;-64
2023/06/05 14:27:32;;;;;;;;;5.60;5.40;;;;;30.39;24.65;99016.25;7674508;22;99737;-64
2023/06/05 14:30:36;;;;;;;;;6.80;6.00;;;;;30.36;25.41;99007.78;7701935;22;96196;-64